sensor_id;sensor_type;location;lat;lon;timestamp;P1;durP1;ratioP1;P2;durP2;ratioP2
12048;SDS011;6085;49.452;8.502;2022-07-09T00:00:17;3.20;;;2.90;;
12048;SDS011;6085;49.452;8.502;2022-07-09T00:04:20;3.00;;;2.72;;
12048;SDS011;6085;49.452;8.502;2022-07-09T00:08:22;2.90;;;2.70;;
12048;SDS011;6085;49.452;8.502;2022-07-09T00:12:24;2.92;;;2.60;;
12048;SDS011;6085;49.452;8.502;2022-07-09T00:16:26;3.13;;;2.60;;
12048;SDS011;6085;49.452;8.502;2022-07-09T00:20:29;2.78;;;2.50;;
12048;SDS011;6085;49.452;8.502;2022-07-09T00:24:31;2.90;;;2.70;;
12048;SDS011;6085;49.452;8.502;2022-07-09T00:28:33;5.03;;;2.83;;
12048;SDS011;6085;49.452;8.502;2022-07-09T00:32:35;4.45;;;2.53;;
12048;SDS011;6085;49.452;8.502;2022-07-09T00:36:39;3.75;;;2.25;;
12048;SDS011;6085;49.452;8.502;2022-07-09T00:40:41;3.22;;;2.17;;
12048;SDS011;6085;49.452;8.502;2022-07-09T00:44:42;2.67;;;2.13;;
12048;SDS011;6085;49.452;8.502;2022-07-09T00:48:44;2.78;;;2.40;;
12048;SDS011;6085;49.452;8.502;2022-07-09T00:52:48;2.50;;;2.30;;
12048;SDS011;6085;49.452;8.502;2022-07-09T00:56:50;2.72;;;2.50;;
12048;SDS011;6085;49.452;8.502;2022-07-09T01:00:53;2.30;;;2.20;;
12048;SDS011;6085;49.452;8.502;2022-07-09T01:04:55;3.85;;;2.40;;
12048;SDS011;6085;49.452;8.502;2022-07-09T01:08:58;2.50;;;2.30;;
12048;SDS011;6085;49.452;8.502;2022-07-09T01:13:00;3.90;;;2.38;;
12048;SDS011;6085;49.452;8.502;2022-07-09T01:17:04;2.40;;;2.30;;
12048;SDS011;6085;49.452;8.502;2022-07-09T01:21:08;2.58;;;2.38;;
12048;SDS011;6085;49.452;8.502;2022-07-09T01:25:10;2.47;;;2.28;;
12048;SDS011;6085;49.452;8.502;2022-07-09T01:29:17;2.78;;;2.40;;
12048;SDS011;6085;49.452;8.502;2022-07-09T01:33:19;3.00;;;2.70;;
12048;SDS011;6085;49.452;8.502;2022-07-09T01:37:22;2.53;;;2.30;;
12048;SDS011;6085;49.452;8.502;2022-07-09T01:41:24;2.60;;;2.40;;
12048;SDS011;6085;49.452;8.502;2022-07-09T01:45:26;3.17;;;2.35;;
12048;SDS011;6085;49.452;8.502;2022-07-09T01:49:28;3.05;;;2.40;;
12048;SDS011;6085;49.452;8.502;2022-07-09T01:53:31;3.95;;;2.75;;
12048;SDS011;6085;49.452;8.502;2022-07-09T01:57:34;2.67;;;2.47;;
12048;SDS011;6085;49.452;8.502;2022-07-09T02:01:36;3.40;;;2.60;;
12048;SDS011;6085;49.452;8.502;2022-07-09T02:05:38;2.75;;;2.55;;
12048;SDS011;6085;49.452;8.502;2022-07-09T02:09:41;2.75;;;2.55;;
12048;SDS011;6085;49.452;8.502;2022-07-09T02:13:43;2.67;;;2.47;;
12048;SDS011;6085;49.452;8.502;2022-07-09T02:17:45;2.80;;;2.60;;
12048;SDS011;6085;49.452;8.502;2022-07-09T02:21:47;3.15;;;2.80;;
12048;SDS011;6085;49.452;8.502;2022-07-09T02:25:50;2.80;;;2.45;;
12048;SDS011;6085;49.452;8.502;2022-07-09T02:29:52;2.70;;;2.50;;
12048;SDS011;6085;49.452;8.502;2022-07-09T02:33:54;2.10;;;2.00;;
12048;SDS011;6085;49.452;8.502;2022-07-09T02:37:56;2.72;;;2.53;;
12048;SDS011;6085;49.452;8.502;2022-07-09T02:41:59;2.65;;;2.45;;
12048;SDS011;6085;49.452;8.502;2022-07-09T02:46:01;2.80;;;2.50;;
12048;SDS011;6085;49.452;8.502;2022-07-09T02:50:04;2.67;;;2.53;;
12048;SDS011;6085;49.452;8.502;2022-07-09T02:54:07;2.75;;;2.55;;
12048;SDS011;6085;49.452;8.502;2022-07-09T02:58:10;2.88;;;2.50;;
12048;SDS011;6085;49.452;8.502;2022-07-09T03:02:12;2.80;;;2.60;;
12048;SDS011;6085;49.452;8.502;2022-07-09T03:06:14;2.65;;;2.42;;
12048;SDS011;6085;49.452;8.502;2022-07-09T03:10:16;2.45;;;2.28;;
12048;SDS011;6085;49.452;8.502;2022-07-09T03:14:20;2.60;;;2.40;;
12048;SDS011;6085;49.452;8.502;2022-07-09T03:18:21;2.63;;;2.42;;
12048;SDS011;6085;49.452;8.502;2022-07-09T03:22:23;2.38;;;2.28;;
12048;SDS011;6085;49.452;8.502;2022-07-09T03:26:25;3.08;;;2.78;;
12048;SDS011;6085;49.452;8.502;2022-07-09T03:30:29;2.40;;;2.30;;
12048;SDS011;6085;49.452;8.502;2022-07-09T03:34:31;3.10;;;2.55;;
12048;SDS011;6085;49.452;8.502;2022-07-09T03:38:33;2.20;;;2.10;;
12048;SDS011;6085;49.452;8.502;2022-07-09T03:42:35;3.53;;;2.47;;
12048;SDS011;6085;49.452;8.502;2022-07-09T03:46:38;2.78;;;2.55;;
12048;SDS011;6085;49.452;8.502;2022-07-09T03:50:40;2.70;;;2.50;;
12048;SDS011;6085;49.452;8.502;2022-07-09T03:54:42;2.95;;;2.70;;
12048;SDS011;6085;49.452;8.502;2022-07-09T03:58:44;2.90;;;2.70;;
12048;SDS011;6085;49.452;8.502;2022-07-09T04:02:48;2.90;;;2.70;;
12048;SDS011;6085;49.452;8.502;2022-07-09T04:06:49;2.90;;;2.70;;
12048;SDS011;6085;49.452;8.502;2022-07-09T04:10:51;3.00;;;2.70;;
12048;SDS011;6085;49.452;8.502;2022-07-09T04:14:53;2.53;;;2.42;;
12048;SDS011;6085;49.452;8.502;2022-07-09T04:18:57;4.93;;;2.97;;
12048;SDS011;6085;49.452;8.502;2022-07-09T04:22:59;3.45;;;3.00;;
12048;SDS011;6085;49.452;8.502;2022-07-09T04:27:01;3.10;;;2.83;;
12048;SDS011;6085;49.452;8.502;2022-07-09T04:31:03;3.70;;;3.10;;
12048;SDS011;6085;49.452;8.502;2022-07-09T04:35:07;4.50;;;3.17;;
12048;SDS011;6085;49.452;8.502;2022-07-09T04:39:09;3.70;;;3.40;;
12048;SDS011;6085;49.452;8.502;2022-07-09T04:43:11;4.10;;;3.65;;
12048;SDS011;6085;49.452;8.502;2022-07-09T04:47:13;4.78;;;3.40;;
12048;SDS011;6085;49.452;8.502;2022-07-09T04:51:16;3.47;;;3.17;;
12048;SDS011;6085;49.452;8.502;2022-07-09T04:55:18;4.30;;;3.42;;
12048;SDS011;6085;49.452;8.502;2022-07-09T04:59:21;4.65;;;3.80;;
12048;SDS011;6085;49.452;8.502;2022-07-09T05:03:23;4.88;;;3.70;;
12048;SDS011;6085;49.452;8.502;2022-07-09T05:07:27;4.07;;;3.65;;
12048;SDS011;6085;49.452;8.502;2022-07-09T05:11:29;5.35;;;3.97;;
12048;SDS011;6085;49.452;8.502;2022-07-09T05:15:32;4.10;;;3.70;;
12048;SDS011;6085;49.452;8.502;2022-07-09T05:19:35;5.13;;;4.05;;
12048;SDS011;6085;49.452;8.502;2022-07-09T05:23:38;5.38;;;4.60;;
12048;SDS011;6085;49.452;8.502;2022-07-09T05:27:41;5.97;;;4.40;;
12048;SDS011;6085;49.452;8.502;2022-07-09T05:31:43;5.70;;;3.90;;
12048;SDS011;6085;49.452;8.502;2022-07-09T05:35:46;5.95;;;4.18;;
12048;SDS011;6085;49.452;8.502;2022-07-09T05:39:49;4.63;;;4.13;;
12048;SDS011;6085;49.452;8.502;2022-07-09T05:43:51;4.78;;;4.38;;
12048;SDS011;6085;49.452;8.502;2022-07-09T05:47:52;4.80;;;4.32;;
12048;SDS011;6085;49.452;8.502;2022-07-09T05:51:55;4.70;;;3.90;;
12048;SDS011;6085;49.452;8.502;2022-07-09T05:55:58;4.47;;;4.07;;
12048;SDS011;6085;49.452;8.502;2022-07-09T06:00:00;3.95;;;3.65;;
12048;SDS011;6085;49.452;8.502;2022-07-09T06:04:04;6.63;;;4.10;;
12048;SDS011;6085;49.452;8.502;2022-07-09T06:08:07;4.20;;;3.47;;
12048;SDS011;6085;49.452;8.502;2022-07-09T06:12:11;6.47;;;3.40;;
12048;SDS011;6085;49.452;8.502;2022-07-09T06:16:13;3.97;;;3.20;;
12048;SDS011;6085;49.452;8.502;2022-07-09T06:20:14;6.28;;;3.60;;
12048;SDS011;6085;49.452;8.502;2022-07-09T06:24:16;4.47;;;3.53;;
12048;SDS011;6085;49.452;8.502;2022-07-09T06:28:20;4.43;;;2.88;;
12048;SDS011;6085;49.452;8.502;2022-07-09T06:32:22;5.85;;;3.55;;
12048;SDS011;6085;49.452;8.502;2022-07-09T06:36:24;6.20;;;3.20;;
12048;SDS011;6085;49.452;8.502;2022-07-09T06:40:26;5.97;;;3.33;;
12048;SDS011;6085;49.452;8.502;2022-07-09T06:44:29;4.03;;;3.10;;
12048;SDS011;6085;49.452;8.502;2022-07-09T06:48:31;5.40;;;3.05;;
12048;SDS011;6085;49.452;8.502;2022-07-09T06:52:33;5.57;;;2.67;;
12048;SDS011;6085;49.452;8.502;2022-07-09T06:56:35;3.10;;;2.60;;
12048;SDS011;6085;49.452;8.502;2022-07-09T07:00:38;3.38;;;2.53;;
12048;SDS011;6085;49.452;8.502;2022-07-09T07:04:40;5.00;;;2.45;;
12048;SDS011;6085;49.452;8.502;2022-07-09T07:08:42;3.17;;;2.55;;
12048;SDS011;6085;49.452;8.502;2022-07-09T07:12:44;3.97;;;2.55;;
12048;SDS011;6085;49.452;8.502;2022-07-09T07:16:47;3.65;;;2.65;;
12048;SDS011;6085;49.452;8.502;2022-07-09T07:20:49;3.83;;;2.38;;
12048;SDS011;6085;49.452;8.502;2022-07-09T07:24:51;3.40;;;2.60;;
12048;SDS011;6085;49.452;8.502;2022-07-09T07:28:52;3.78;;;2.17;;
12048;SDS011;6085;49.452;8.502;2022-07-09T07:32:56;2.90;;;2.40;;
12048;SDS011;6085;49.452;8.502;2022-07-09T07:36:58;3.75;;;2.70;;
12048;SDS011;6085;49.452;8.502;2022-07-09T07:41:00;3.10;;;2.30;;
12048;SDS011;6085;49.452;8.502;2022-07-09T07:45:02;3.42;;;2.40;;
12048;SDS011;6085;49.452;8.502;2022-07-09T07:49:06;2.85;;;2.30;;
12048;SDS011;6085;49.452;8.502;2022-07-09T07:53:08;2.90;;;2.03;;
12048;SDS011;6085;49.452;8.502;2022-07-09T07:57:10;2.10;;;1.90;;
12048;SDS011;6085;49.452;8.502;2022-07-09T08:01:12;2.55;;;1.98;;
12048;SDS011;6085;49.452;8.502;2022-07-09T08:05:15;3.58;;;2.20;;
12048;SDS011;6085;49.452;8.502;2022-07-09T08:09:17;2.95;;;2.60;;
12048;SDS011;6085;49.452;8.502;2022-07-09T08:13:20;2.95;;;2.00;;
12048;SDS011;6085;49.452;8.502;2022-07-09T08:17:22;4.68;;;2.60;;
12048;SDS011;6085;49.452;8.502;2022-07-09T08:21:26;3.70;;;2.20;;
12048;SDS011;6085;49.452;8.502;2022-07-09T08:25:27;2.88;;;2.42;;
12048;SDS011;6085;49.452;8.502;2022-07-09T08:29:29;3.83;;;2.60;;
12048;SDS011;6085;49.452;8.502;2022-07-09T08:33:31;3.53;;;2.72;;
12048;SDS011;6085;49.452;8.502;2022-07-09T08:37:35;3.92;;;2.88;;
12048;SDS011;6085;49.452;8.502;2022-07-09T08:41:37;4.05;;;2.33;;
12048;SDS011;6085;49.452;8.502;2022-07-09T08:45:39;4.53;;;2.67;;
12048;SDS011;6085;49.452;8.502;2022-07-09T08:49:44;3.22;;;2.92;;
12048;SDS011;6085;49.452;8.502;2022-07-09T08:53:50;5.78;;;3.67;;
12048;SDS011;6085;49.452;8.502;2022-07-09T08:57:55;7.15;;;3.17;;
12048;SDS011;6085;49.452;8.502;2022-07-09T09:01:57;5.68;;;3.13;;
12048;SDS011;6085;49.452;8.502;2022-07-09T09:05:59;8.55;;;3.20;;
12048;SDS011;6085;49.452;8.502;2022-07-09T09:10:05;5.30;;;3.70;;
12048;SDS011;6085;49.452;8.502;2022-07-09T09:14:07;2.75;;;2.55;;
12048;SDS011;6085;49.452;8.502;2022-07-09T09:18:22;3.50;;;2.60;;
12048;SDS011;6085;49.452;8.502;2022-07-09T09:22:24;4.13;;;2.97;;
12048;SDS011;6085;49.452;8.502;2022-07-09T09:26:27;7.10;;;3.50;;
12048;SDS011;6085;49.452;8.502;2022-07-09T09:30:29;5.78;;;2.90;;
12048;SDS011;6085;49.452;8.502;2022-07-09T09:34:34;5.20;;;2.97;;
12048;SDS011;6085;49.452;8.502;2022-07-09T09:38:36;6.22;;;2.80;;
12048;SDS011;6085;49.452;8.502;2022-07-09T09:42:40;3.75;;;2.90;;
12048;SDS011;6085;49.452;8.502;2022-07-09T09:46:42;3.25;;;2.50;;
12048;SDS011;6085;49.452;8.502;2022-07-09T09:50:45;5.25;;;2.60;;
12048;SDS011;6085;49.452;8.502;2022-07-09T09:54:50;4.53;;;2.50;;
12048;SDS011;6085;49.452;8.502;2022-07-09T09:58:54;3.58;;;2.55;;
12048;SDS011;6085;49.452;8.502;2022-07-09T10:02:57;2.95;;;2.00;;
12048;SDS011;6085;49.452;8.502;2022-07-09T10:07:01;3.72;;;2.10;;
12048;SDS011;6085;49.452;8.502;2022-07-09T10:11:04;5.25;;;2.28;;
12048;SDS011;6085;49.452;8.502;2022-07-09T10:15:15;2.08;;;1.90;;
12048;SDS011;6085;49.452;8.502;2022-07-09T10:19:22;3.28;;;2.22;;
12048;SDS011;6085;49.452;8.502;2022-07-09T10:23:25;2.53;;;1.83;;
12048;SDS011;6085;49.452;8.502;2022-07-09T10:27:27;3.17;;;2.10;;
12048;SDS011;6085;49.452;8.502;2022-07-09T10:31:30;3.33;;;2.42;;
12048;SDS011;6085;49.452;8.502;2022-07-09T10:35:42;2.55;;;2.20;;
12048;SDS011;6085;49.452;8.502;2022-07-09T10:39:52;3.10;;;2.13;;
12048;SDS011;6085;49.452;8.502;2022-07-09T10:43:55;2.75;;;1.90;;
12048;SDS011;6085;49.452;8.502;2022-07-09T10:47:58;2.72;;;1.80;;
12048;SDS011;6085;49.452;8.502;2022-07-09T10:52:01;2.03;;;1.80;;
12048;SDS011;6085;49.452;8.502;2022-07-09T10:56:04;2.25;;;1.60;;
12048;SDS011;6085;49.452;8.502;2022-07-09T11:00:07;2.78;;;1.40;;
12048;SDS011;6085;49.452;8.502;2022-07-09T11:04:15;2.33;;;1.67;;
12048;SDS011;6085;49.452;8.502;2022-07-09T11:08:28;1.50;;;1.40;;
12048;SDS011;6085;49.452;8.502;2022-07-09T11:12:32;2.72;;;1.90;;
12048;SDS011;6085;49.452;8.502;2022-07-09T11:16:34;2.92;;;1.80;;
12048;SDS011;6085;49.452;8.502;2022-07-09T11:20:38;2.85;;;1.60;;
12048;SDS011;6085;49.452;8.502;2022-07-09T11:24:43;3.58;;;1.38;;
12048;SDS011;6085;49.452;8.502;2022-07-09T11:28:45;1.45;;;1.35;;
12048;SDS011;6085;49.452;8.502;2022-07-09T11:32:47;2.58;;;1.35;;
12048;SDS011;6085;49.452;8.502;2022-07-09T11:36:52;4.15;;;1.33;;
12048;SDS011;6085;49.452;8.502;2022-07-09T11:40:59;2.25;;;1.30;;
12048;SDS011;6085;49.452;8.502;2022-07-09T11:45:04;1.70;;;1.38;;
12048;SDS011;6085;49.452;8.502;2022-07-09T11:49:13;1.40;;;1.30;;
12048;SDS011;6085;49.452;8.502;2022-07-09T11:53:21;3.22;;;1.55;;
12048;SDS011;6085;49.452;8.502;2022-07-09T11:57:23;1.45;;;1.25;;
12048;SDS011;6085;49.452;8.502;2022-07-09T12:01:25;3.13;;;1.45;;
12048;SDS011;6085;49.452;8.502;2022-07-09T12:05:28;1.83;;;1.40;;
12048;SDS011;6085;49.452;8.502;2022-07-09T12:09:35;1.08;;;1.08;;
12048;SDS011;6085;49.452;8.502;2022-07-09T12:13:38;2.30;;;1.55;;
12048;SDS011;6085;49.452;8.502;2022-07-09T12:17:42;1.63;;;1.38;;
12048;SDS011;6085;49.452;8.502;2022-07-09T12:21:51;1.95;;;1.60;;
12048;SDS011;6085;49.452;8.502;2022-07-09T12:25:58;4.70;;;1.60;;
12048;SDS011;6085;49.452;8.502;2022-07-09T12:30:01;3.10;;;1.10;;
12048;SDS011;6085;49.452;8.502;2022-07-09T12:34:05;2.65;;;1.20;;
12048;SDS011;6085;49.452;8.502;2022-07-09T12:38:07;2.13;;;1.40;;
12048;SDS011;6085;49.452;8.502;2022-07-09T12:42:11;1.30;;;1.20;;
12048;SDS011;6085;49.452;8.502;2022-07-09T12:46:12;2.15;;;1.10;;
12048;SDS011;6085;49.452;8.502;2022-07-09T12:50:14;1.48;;;1.13;;
12048;SDS011;6085;49.452;8.502;2022-07-09T12:54:17;1.40;;;1.30;;
12048;SDS011;6085;49.452;8.502;2022-07-09T12:58:20;1.60;;;1.40;;
12048;SDS011;6085;49.452;8.502;2022-07-09T13:02:22;1.25;;;1.15;;
12048;SDS011;6085;49.452;8.502;2022-07-09T13:06:24;1.50;;;1.00;;
12048;SDS011;6085;49.452;8.502;2022-07-09T13:10:34;2.25;;;1.20;;
12048;SDS011;6085;49.452;8.502;2022-07-09T13:14:37;1.40;;;1.20;;
12048;SDS011;6085;49.452;8.502;2022-07-09T13:18:39;1.08;;;1.00;;
12048;SDS011;6085;49.452;8.502;2022-07-09T13:22:42;2.00;;;1.05;;
12048;SDS011;6085;49.452;8.502;2022-07-09T13:26:43;1.88;;;1.25;;
12048;SDS011;6085;49.452;8.502;2022-07-09T13:30:47;0.93;;;0.90;;
12048;SDS011;6085;49.452;8.502;2022-07-09T13:34:49;0.70;;;0.70;;
12048;SDS011;6085;49.452;8.502;2022-07-09T13:38:51;1.00;;;0.98;;
12048;SDS011;6085;49.452;8.502;2022-07-09T13:42:53;1.60;;;1.00;;
12048;SDS011;6085;49.452;8.502;2022-07-09T13:46:56;1.33;;;0.90;;
12048;SDS011;6085;49.452;8.502;2022-07-09T13:50:58;0.77;;;0.77;;
12048;SDS011;6085;49.452;8.502;2022-07-09T13:55:00;2.13;;;1.05;;
12048;SDS011;6085;49.452;8.502;2022-07-09T13:59:02;1.15;;;1.05;;
12048;SDS011;6085;49.452;8.502;2022-07-09T14:03:06;0.73;;;0.73;;
12048;SDS011;6085;49.452;8.502;2022-07-09T14:07:08;1.95;;;1.85;;
12048;SDS011;6085;49.452;8.502;2022-07-09T14:11:10;1.55;;;1.00;;
12048;SDS011;6085;49.452;8.502;2022-07-09T14:15:11;1.20;;;1.10;;
12048;SDS011;6085;49.452;8.502;2022-07-09T14:19:15;1.00;;;1.00;;
12048;SDS011;6085;49.452;8.502;2022-07-09T14:23:19;0.82;;;0.80;;
12048;SDS011;6085;49.452;8.502;2022-07-09T14:27:21;1.10;;;1.00;;
12048;SDS011;6085;49.452;8.502;2022-07-09T14:31:23;2.03;;;1.20;;
12048;SDS011;6085;49.452;8.502;2022-07-09T14:35:27;1.27;;;1.17;;
12048;SDS011;6085;49.452;8.502;2022-07-09T14:39:29;1.00;;;1.00;;
12048;SDS011;6085;49.452;8.502;2022-07-09T14:43:31;1.17;;;1.10;;
12048;SDS011;6085;49.452;8.502;2022-07-09T14:47:33;3.35;;;1.90;;
12048;SDS011;6085;49.452;8.502;2022-07-09T14:51:37;2.00;;;1.35;;
12048;SDS011;6085;49.452;8.502;2022-07-09T14:55:39;1.73;;;1.15;;
12048;SDS011;6085;49.452;8.502;2022-07-09T14:59:41;1.88;;;1.50;;
12048;SDS011;6085;49.452;8.502;2022-07-09T15:03:43;1.02;;;0.93;;
12048;SDS011;6085;49.452;8.502;2022-07-09T15:07:46;1.27;;;1.20;;
12048;SDS011;6085;49.452;8.502;2022-07-09T15:11:48;3.83;;;3.47;;
12048;SDS011;6085;49.452;8.502;2022-07-09T15:15:50;1.30;;;1.20;;
12048;SDS011;6085;49.452;8.502;2022-07-09T15:19:52;1.25;;;1.25;;
12048;SDS011;6085;49.452;8.502;2022-07-09T15:23:55;1.85;;;1.42;;
12048;SDS011;6085;49.452;8.502;2022-07-09T15:27:57;1.05;;;1.02;;
12048;SDS011;6085;49.452;8.502;2022-07-09T15:31:59;3.00;;;1.73;;
12048;SDS011;6085;49.452;8.502;2022-07-09T15:36:01;1.70;;;1.60;;
12048;SDS011;6085;49.452;8.502;2022-07-09T15:40:05;1.42;;;1.30;;
12048;SDS011;6085;49.452;8.502;2022-07-09T15:44:07;1.48;;;1.20;;
12048;SDS011;6085;49.452;8.502;2022-07-09T15:48:09;1.85;;;1.33;;
12048;SDS011;6085;49.452;8.502;2022-07-09T15:52:11;1.42;;;1.33;;
12048;SDS011;6085;49.452;8.502;2022-07-09T15:56:14;1.50;;;1.40;;
12048;SDS011;6085;49.452;8.502;2022-07-09T16:00:17;1.27;;;1.23;;
12048;SDS011;6085;49.452;8.502;2022-07-09T16:04:24;2.13;;;1.52;;
12048;SDS011;6085;49.452;8.502;2022-07-09T16:08:26;2.90;;;1.25;;
12048;SDS011;6085;49.452;8.502;2022-07-09T16:12:29;1.80;;;1.70;;
12048;SDS011;6085;49.452;8.502;2022-07-09T16:16:49;2.90;;;2.55;;
12048;SDS011;6085;49.452;8.502;2022-07-09T16:20:50;1.85;;;1.75;;
12048;SDS011;6085;49.452;8.502;2022-07-09T16:24:52;1.30;;;1.20;;
12048;SDS011;6085;49.452;8.502;2022-07-09T16:28:55;1.58;;;1.10;;
12048;SDS011;6085;49.452;8.502;2022-07-09T16:32:57;1.35;;;1.25;;
12048;SDS011;6085;49.452;8.502;2022-07-09T16:37:02;1.35;;;1.08;;
12048;SDS011;6085;49.452;8.502;2022-07-09T16:41:04;1.50;;;1.40;;
12048;SDS011;6085;49.452;8.502;2022-07-09T16:45:08;1.55;;;1.45;;
12048;SDS011;6085;49.452;8.502;2022-07-09T16:49:10;1.23;;;1.23;;
12048;SDS011;6085;49.452;8.502;2022-07-09T16:53:13;1.20;;;1.20;;
12048;SDS011;6085;49.452;8.502;2022-07-09T16:57:15;1.30;;;1.20;;
12048;SDS011;6085;49.452;8.502;2022-07-09T17:01:18;1.50;;;1.40;;
12048;SDS011;6085;49.452;8.502;2022-07-09T17:05:20;1.13;;;1.13;;
12048;SDS011;6085;49.452;8.502;2022-07-09T17:09:22;1.15;;;1.13;;
12048;SDS011;6085;49.452;8.502;2022-07-09T17:13:24;1.20;;;1.20;;
12048;SDS011;6085;49.452;8.502;2022-07-09T17:17:27;1.65;;;1.52;;
12048;SDS011;6085;49.452;8.502;2022-07-09T17:21:30;1.50;;;1.40;;
12048;SDS011;6085;49.452;8.502;2022-07-09T17:25:32;1.33;;;1.30;;
12048;SDS011;6085;49.452;8.502;2022-07-09T17:29:34;3.35;;;1.60;;
12048;SDS011;6085;49.452;8.502;2022-07-09T17:33:38;1.52;;;1.42;;
12048;SDS011;6085;49.452;8.502;2022-07-09T17:37:39;1.23;;;1.20;;
12048;SDS011;6085;49.452;8.502;2022-07-09T17:41:41;1.50;;;1.40;;
12048;SDS011;6085;49.452;8.502;2022-07-09T17:45:44;1.75;;;1.58;;
12048;SDS011;6085;49.452;8.502;2022-07-09T17:49:49;1.70;;;1.60;;
12048;SDS011;6085;49.452;8.502;2022-07-09T17:53:51;2.85;;;1.45;;
12048;SDS011;6085;49.452;8.502;2022-07-09T17:57:53;2.45;;;1.80;;
12048;SDS011;6085;49.452;8.502;2022-07-09T18:01:56;3.92;;;1.90;;
12048;SDS011;6085;49.452;8.502;2022-07-09T18:05:59;2.50;;;1.85;;
12048;SDS011;6085;49.452;8.502;2022-07-09T18:10:01;2.30;;;1.80;;
12048;SDS011;6085;49.452;8.502;2022-07-09T18:14:03;2.08;;;1.73;;
12048;SDS011;6085;49.452;8.502;2022-07-09T18:18:05;1.90;;;1.80;;
12048;SDS011;6085;49.452;8.502;2022-07-09T18:22:08;2.15;;;1.75;;
12048;SDS011;6085;49.452;8.502;2022-07-09T18:26:10;3.45;;;1.75;;
12048;SDS011;6085;49.452;8.502;2022-07-09T18:30:12;2.22;;;1.70;;
12048;SDS011;6085;49.452;8.502;2022-07-09T18:34:14;1.92;;;1.73;;
12048;SDS011;6085;49.452;8.502;2022-07-09T18:38:18;3.08;;;2.10;;
12048;SDS011;6085;49.452;8.502;2022-07-09T18:42:19;1.77;;;1.67;;
12048;SDS011;6085;49.452;8.502;2022-07-09T18:46:21;1.90;;;1.80;;
12048;SDS011;6085;49.452;8.502;2022-07-09T18:50:23;1.92;;;1.70;;
12048;SDS011;6085;49.452;8.502;2022-07-09T18:54:27;2.03;;;1.80;;
12048;SDS011;6085;49.452;8.502;2022-07-09T18:58:28;2.03;;;1.85;;
12048;SDS011;6085;49.452;8.502;2022-07-09T19:02:30;2.35;;;1.70;;
12048;SDS011;6085;49.452;8.502;2022-07-09T19:06:32;2.38;;;1.95;;
12048;SDS011;6085;49.452;8.502;2022-07-09T19:10:35;2.00;;;1.90;;
12048;SDS011;6085;49.452;8.502;2022-07-09T19:14:37;2.10;;;1.80;;
12048;SDS011;6085;49.452;8.502;2022-07-09T19:18:39;1.80;;;1.70;;
12048;SDS011;6085;49.452;8.502;2022-07-09T19:22:41;1.80;;;1.70;;
12048;SDS011;6085;49.452;8.502;2022-07-09T19:26:45;1.65;;;1.55;;
12048;SDS011;6085;49.452;8.502;2022-07-09T19:30:47;1.90;;;1.80;;
12048;SDS011;6085;49.452;8.502;2022-07-09T19:35:06;2.65;;;1.70;;
12048;SDS011;6085;49.452;8.502;2022-07-09T19:39:08;1.90;;;1.80;;
12048;SDS011;6085;49.452;8.502;2022-07-09T19:43:12;1.70;;;1.60;;
12048;SDS011;6085;49.452;8.502;2022-07-09T19:47:14;2.30;;;2.20;;
12048;SDS011;6085;49.452;8.502;2022-07-09T19:51:16;3.50;;;2.00;;
12048;SDS011;6085;49.452;8.502;2022-07-09T19:55:18;2.10;;;2.00;;
12048;SDS011;6085;49.452;8.502;2022-07-09T19:59:22;2.15;;;2.05;;
12048;SDS011;6085;49.452;8.502;2022-07-09T20:03:24;2.40;;;2.20;;
12048;SDS011;6085;49.452;8.502;2022-07-09T20:07:25;2.17;;;2.08;;
12048;SDS011;6085;49.452;8.502;2022-07-09T20:11:27;2.50;;;2.30;;
12048;SDS011;6085;49.452;8.502;2022-07-09T20:15:30;2.15;;;2.05;;
12048;SDS011;6085;49.452;8.502;2022-07-09T20:19:32;2.47;;;2.25;;
12048;SDS011;6085;49.452;8.502;2022-07-09T20:23:34;2.10;;;2.00;;
12048;SDS011;6085;49.452;8.502;2022-07-09T20:27:36;2.20;;;2.10;;
12048;SDS011;6085;49.452;8.502;2022-07-09T20:31:39;2.38;;;2.28;;
12048;SDS011;6085;49.452;8.502;2022-07-09T20:35:41;2.70;;;2.50;;
12048;SDS011;6085;49.452;8.502;2022-07-09T20:39:43;2.20;;;2.10;;
12048;SDS011;6085;49.452;8.502;2022-07-09T20:43:45;2.53;;;2.33;;
12048;SDS011;6085;49.452;8.502;2022-07-09T20:47:48;2.38;;;2.17;;
12048;SDS011;6085;49.452;8.502;2022-07-09T20:51:50;2.95;;;2.72;;
12048;SDS011;6085;49.452;8.502;2022-07-09T20:55:52;3.10;;;2.90;;
12048;SDS011;6085;49.452;8.502;2022-07-09T20:59:55;3.38;;;3.17;;
12048;SDS011;6085;49.452;8.502;2022-07-09T21:03:58;4.07;;;2.80;;
12048;SDS011;6085;49.452;8.502;2022-07-09T21:08:00;3.63;;;3.33;;
12048;SDS011;6085;49.452;8.502;2022-07-09T21:12:02;3.40;;;3.10;;
12048;SDS011;6085;49.452;8.502;2022-07-09T21:16:04;4.00;;;3.55;;
12048;SDS011;6085;49.452;8.502;2022-07-09T21:20:08;3.28;;;3.03;;
12048;SDS011;6085;49.452;8.502;2022-07-09T21:24:10;3.35;;;3.05;;
12048;SDS011;6085;49.452;8.502;2022-07-09T21:28:12;3.35;;;3.15;;
12048;SDS011;6085;49.452;8.502;2022-07-09T21:32:15;3.35;;;3.05;;
12048;SDS011;6085;49.452;8.502;2022-07-09T21:36:18;3.80;;;3.50;;
12048;SDS011;6085;49.452;8.502;2022-07-09T21:40:20;4.15;;;3.75;;
12048;SDS011;6085;49.452;8.502;2022-07-09T21:44:22;3.72;;;3.42;;
12048;SDS011;6085;49.452;8.502;2022-07-09T21:48:24;3.38;;;3.17;;
12048;SDS011;6085;49.452;8.502;2022-07-09T21:52:27;4.70;;;4.30;;
12048;SDS011;6085;49.452;8.502;2022-07-09T21:56:29;5.47;;;4.00;;
12048;SDS011;6085;49.452;8.502;2022-07-09T22:04:49;3.35;;;3.15;;
12048;SDS011;6085;49.452;8.502;2022-07-09T22:08:53;3.50;;;3.20;;
12048;SDS011;6085;49.452;8.502;2022-07-09T22:12:55;3.45;;;3.25;;
12048;SDS011;6085;49.452;8.502;2022-07-09T22:16:57;3.53;;;3.22;;
12048;SDS011;6085;49.452;8.502;2022-07-09T22:20:59;3.20;;;3.00;;
12048;SDS011;6085;49.452;8.502;2022-07-09T22:25:04;4.03;;;3.63;;
12048;SDS011;6085;49.452;8.502;2022-07-09T22:29:06;4.00;;;3.63;;
12048;SDS011;6085;49.452;8.502;2022-07-09T22:33:08;3.70;;;3.50;;
12048;SDS011;6085;49.452;8.502;2022-07-09T22:37:10;3.50;;;3.20;;
12048;SDS011;6085;49.452;8.502;2022-07-09T22:41:13;3.53;;;3.22;;
12048;SDS011;6085;49.452;8.502;2022-07-09T22:45:15;3.88;;;3.58;;
12048;SDS011;6085;49.452;8.502;2022-07-09T22:49:17;4.15;;;3.85;;
12048;SDS011;6085;49.452;8.502;2022-07-09T22:53:19;5.22;;;4.72;;
12048;SDS011;6085;49.452;8.502;2022-07-09T22:57:22;5.30;;;4.80;;
12048;SDS011;6085;49.452;8.502;2022-07-09T23:01:24;4.88;;;4.47;;
12048;SDS011;6085;49.452;8.502;2022-07-09T23:05:26;4.03;;;3.72;;
12048;SDS011;6085;49.452;8.502;2022-07-09T23:09:28;4.28;;;3.88;;
12048;SDS011;6085;49.452;8.502;2022-07-09T23:13:31;5.05;;;4.38;;
12048;SDS011;6085;49.452;8.502;2022-07-09T23:17:36;5.20;;;4.80;;
12048;SDS011;6085;49.452;8.502;2022-07-09T23:21:38;5.38;;;4.80;;
12048;SDS011;6085;49.452;8.502;2022-07-09T23:25:40;5.47;;;5.03;;
12048;SDS011;6085;49.452;8.502;2022-07-09T23:29:44;7.05;;;6.35;;
12048;SDS011;6085;49.452;8.502;2022-07-09T23:33:46;8.43;;;6.43;;
12048;SDS011;6085;49.452;8.502;2022-07-09T23:37:48;6.15;;;5.55;;
12048;SDS011;6085;49.452;8.502;2022-07-09T23:41:50;5.32;;;4.75;;
12048;SDS011;6085;49.452;8.502;2022-07-09T23:45:53;4.70;;;4.30;;
12048;SDS011;6085;49.452;8.502;2022-07-09T23:49:55;5.20;;;4.70;;
12048;SDS011;6085;49.452;8.502;2022-07-09T23:53:57;5.10;;;4.60;;
12048;SDS011;6085;49.452;8.502;2022-07-09T23:57:59;5.43;;;4.13;;
